sensor_id;sensor_type;location;lat;lon;timestamp;temperature;humidity
14531;DHT22;7352;50.866;4.366;2022-07-06T00:00:22;18.20;94.30
14531;DHT22;7352;50.866;4.366;2022-07-06T00:02:51;18.20;94.70
14531;DHT22;7352;50.866;4.366;2022-07-06T00:05:18;18.20;94.80
14531;DHT22;7352;50.866;4.366;2022-07-06T00:07:47;18.30;94.70
14531;DHT22;7352;50.866;4.366;2022-07-06T00:10:16;18.10;95.10
14531;DHT22;7352;50.866;4.366;2022-07-06T00:12:43;18.10;95.30
14531;DHT22;7352;50.866;4.366;2022-07-06T00:15:12;18.00;95.70
14531;DHT22;7352;50.866;4.366;2022-07-06T00:17:39;17.90;96.20
14531;DHT22;7352;50.866;4.366;2022-07-06T00:20:07;17.70;96.50
14531;DHT22;7352;50.866;4.366;2022-07-06T00:22:34;17.70;97.20
14531;DHT22;7352;50.866;4.366;2022-07-06T00:25:01;17.70;97.40
14531;DHT22;7352;50.866;4.366;2022-07-06T00:27:29;17.90;97.00
14531;DHT22;7352;50.866;4.366;2022-07-06T00:29:56;17.90;97.00
14531;DHT22;7352;50.866;4.366;2022-07-06T00:32:25;17.90;97.40
14531;DHT22;7352;50.866;4.366;2022-07-06T00:34:53;17.80;97.80
14531;DHT22;7352;50.866;4.366;2022-07-06T00:37:20;17.80;97.90
14531;DHT22;7352;50.866;4.366;2022-07-06T00:39:48;17.80;97.90
14531;DHT22;7352;50.866;4.366;2022-07-06T00:42:18;17.80;97.90
14531;DHT22;7352;50.866;4.366;2022-07-06T00:44:45;17.80;97.90
14531;DHT22;7352;50.866;4.366;2022-07-06T00:47:14;17.70;98.40
14531;DHT22;7352;50.866;4.366;2022-07-06T00:49:42;17.70;98.60
14531;DHT22;7352;50.866;4.366;2022-07-06T00:52:27;17.70;99.10
14531;DHT22;7352;50.866;4.366;2022-07-06T00:54:54;17.80;98.90
14531;DHT22;7352;50.866;4.366;2022-07-06T00:57:21;17.90;98.40
14531;DHT22;7352;50.866;4.366;2022-07-06T00:59:52;17.60;99.10
14531;DHT22;7352;50.866;4.366;2022-07-06T01:02:25;17.70;98.90
14531;DHT22;7352;50.866;4.366;2022-07-06T01:04:53;17.50;99.60
14531;DHT22;7352;50.866;4.366;2022-07-06T01:07:20;17.60;99.80
14531;DHT22;7352;50.866;4.366;2022-07-06T01:09:47;17.60;99.90
14531;DHT22;7352;50.866;4.366;2022-07-06T01:12:20;17.70;99.80
14531;DHT22;7352;50.866;4.366;2022-07-06T01:14:47;17.60;99.60
14531;DHT22;7352;50.866;4.366;2022-07-06T01:17:15;17.70;99.50
14531;DHT22;7352;50.866;4.366;2022-07-06T01:19:42;17.50;99.90
14531;DHT22;7352;50.866;4.366;2022-07-06T01:22:11;17.50;99.90
14531;DHT22;7352;50.866;4.366;2022-07-06T01:24:38;17.50;99.90
14531;DHT22;7352;50.866;4.366;2022-07-06T01:27:06;17.50;99.90
14531;DHT22;7352;50.866;4.366;2022-07-06T01:29:34;17.50;99.90
14531;DHT22;7352;50.866;4.366;2022-07-06T01:32:01;17.50;99.90
14531;DHT22;7352;50.866;4.366;2022-07-06T01:34:29;17.50;99.90
14531;DHT22;7352;50.866;4.366;2022-07-06T01:36:56;17.60;99.90
14531;DHT22;7352;50.866;4.366;2022-07-06T01:39:24;17.50;99.90
14531;DHT22;7352;50.866;4.366;2022-07-06T01:41:51;17.40;99.90
14531;DHT22;7352;50.866;4.366;2022-07-06T01:44:19;17.40;99.90
14531;DHT22;7352;50.866;4.366;2022-07-06T01:46:47;17.30;99.90
14531;DHT22;7352;50.866;4.366;2022-07-06T01:49:14;17.20;99.90
14531;DHT22;7352;50.866;4.366;2022-07-06T01:51:41;17.10;99.90
14531;DHT22;7352;50.866;4.366;2022-07-06T01:54:08;17.20;99.90
14531;DHT22;7352;50.866;4.366;2022-07-06T01:56:37;17.20;99.90
14531;DHT22;7352;50.866;4.366;2022-07-06T01:59:04;17.30;99.90
14531;DHT22;7352;50.866;4.366;2022-07-06T02:01:31;17.10;99.90
14531;DHT22;7352;50.866;4.366;2022-07-06T02:03:58;17.20;99.90
14531;DHT22;7352;50.866;4.366;2022-07-06T02:06:25;17.00;99.90
14531;DHT22;7352;50.866;4.366;2022-07-06T02:08:52;17.10;99.90
14531;DHT22;7352;50.866;4.366;2022-07-06T02:11:26;17.10;99.90
14531;DHT22;7352;50.866;4.366;2022-07-06T02:14:03;17.10;99.90
14531;DHT22;7352;50.866;4.366;2022-07-06T02:16:30;17.10;99.90
14531;DHT22;7352;50.866;4.366;2022-07-06T02:18:58;17.30;99.90
14531;DHT22;7352;50.866;4.366;2022-07-06T02:21:25;17.30;99.90
14531;DHT22;7352;50.866;4.366;2022-07-06T02:23:52;17.30;99.90
14531;DHT22;7352;50.866;4.366;2022-07-06T02:26:19;17.20;99.90
14531;DHT22;7352;50.866;4.366;2022-07-06T02:28:46;17.10;99.90
14531;DHT22;7352;50.866;4.366;2022-07-06T02:31:15;17.30;99.90
14531;DHT22;7352;50.866;4.366;2022-07-06T02:33:42;17.10;99.90
14531;DHT22;7352;50.866;4.366;2022-07-06T02:36:09;17.10;99.90
14531;DHT22;7352;50.866;4.366;2022-07-06T02:38:36;17.10;99.90
14531;DHT22;7352;50.866;4.366;2022-07-06T02:41:03;17.20;99.90
14531;DHT22;7352;50.866;4.366;2022-07-06T02:43:30;17.10;99.90
14531;DHT22;7352;50.866;4.366;2022-07-06T02:45:57;16.90;99.90
14531;DHT22;7352;50.866;4.366;2022-07-06T02:48:26;17.00;99.90
14531;DHT22;7352;50.866;4.366;2022-07-06T02:50:53;17.00;99.90
14531;DHT22;7352;50.866;4.366;2022-07-06T02:53:20;16.90;99.90
14531;DHT22;7352;50.866;4.366;2022-07-06T02:55:47;16.80;99.90
14531;DHT22;7352;50.866;4.366;2022-07-06T02:58:14;16.90;99.90
14531;DHT22;7352;50.866;4.366;2022-07-06T03:00:41;16.70;99.90
14531;DHT22;7352;50.866;4.366;2022-07-06T03:03:08;16.70;99.90
14531;DHT22;7352;50.866;4.366;2022-07-06T03:05:37;16.70;99.90
14531;DHT22;7352;50.866;4.366;2022-07-06T03:08:05;16.60;99.90
14531;DHT22;7352;50.866;4.366;2022-07-06T03:10:32;16.60;99.90
14531;DHT22;7352;50.866;4.366;2022-07-06T03:12:59;16.50;99.90
14531;DHT22;7352;50.866;4.366;2022-07-06T03:15:26;16.50;99.90
14531;DHT22;7352;50.866;4.366;2022-07-06T03:17:53;16.60;99.90
14531;DHT22;7352;50.866;4.366;2022-07-06T03:20:20;16.60;99.90
14531;DHT22;7352;50.866;4.366;2022-07-06T03:22:55;16.60;99.90
14531;DHT22;7352;50.866;4.366;2022-07-06T03:25:22;16.60;99.90
14531;DHT22;7352;50.866;4.366;2022-07-06T03:27:49;16.50;99.90
14531;DHT22;7352;50.866;4.366;2022-07-06T03:30:16;16.40;99.90
14531;DHT22;7352;50.866;4.366;2022-07-06T03:32:44;16.50;99.90
14531;DHT22;7352;50.866;4.366;2022-07-06T03:35:11;16.50;99.90
14531;DHT22;7352;50.866;4.366;2022-07-06T03:37:39;16.70;99.90
14531;DHT22;7352;50.866;4.366;2022-07-06T03:40:08;16.60;99.90
14531;DHT22;7352;50.866;4.366;2022-07-06T03:42:36;16.70;99.90
14531;DHT22;7352;50.866;4.366;2022-07-06T03:45:04;16.80;99.90
14531;DHT22;7352;50.866;4.366;2022-07-06T03:47:31;16.70;99.90
14531;DHT22;7352;50.866;4.366;2022-07-06T03:49:58;16.50;99.90
14531;DHT22;7352;50.866;4.366;2022-07-06T03:52:25;16.50;99.90
14531;DHT22;7352;50.866;4.366;2022-07-06T03:54:52;16.50;99.90
14531;DHT22;7352;50.866;4.366;2022-07-06T03:57:21;16.50;99.90
14531;DHT22;7352;50.866;4.366;2022-07-06T03:59:52;16.50;99.90
14531;DHT22;7352;50.866;4.366;2022-07-06T04:02:20;16.70;99.90
14531;DHT22;7352;50.866;4.366;2022-07-06T04:04:47;16.90;99.90
14531;DHT22;7352;50.866;4.366;2022-07-06T04:07:16;16.80;99.90
14531;DHT22;7352;50.866;4.366;2022-07-06T04:09:47;16.60;99.90
14531;DHT22;7352;50.866;4.366;2022-07-06T04:12:14;16.60;99.90
14531;DHT22;7352;50.866;4.366;2022-07-06T04:14:42;16.70;99.90
14531;DHT22;7352;50.866;4.366;2022-07-06T04:17:10;16.70;99.90
14531;DHT22;7352;50.866;4.366;2022-07-06T04:19:50;16.70;99.90
14531;DHT22;7352;50.866;4.366;2022-07-06T04:22:18;16.70;99.90
14531;DHT22;7352;50.866;4.366;2022-07-06T04:24:45;16.70;99.90
14531;DHT22;7352;50.866;4.366;2022-07-06T04:27:15;16.90;99.90
14531;DHT22;7352;50.866;4.366;2022-07-06T04:29:50;16.70;99.90
14531;DHT22;7352;50.866;4.366;2022-07-06T04:32:17;16.80;99.90
14531;DHT22;7352;50.866;4.366;2022-07-06T04:34:49;16.70;99.90
14531;DHT22;7352;50.866;4.366;2022-07-06T04:37:21;16.70;99.90
14531;DHT22;7352;50.866;4.366;2022-07-06T04:39:48;16.70;99.90
14531;DHT22;7352;50.866;4.366;2022-07-06T04:42:15;16.90;99.90
14531;DHT22;7352;50.866;4.366;2022-07-06T04:44:43;16.80;99.90
14531;DHT22;7352;50.866;4.366;2022-07-06T04:47:14;16.80;99.90
14531;DHT22;7352;50.866;4.366;2022-07-06T04:49:41;16.90;99.90
14531;DHT22;7352;50.866;4.366;2022-07-06T04:52:10;17.20;99.90
14531;DHT22;7352;50.866;4.366;2022-07-06T04:54:37;17.20;99.90
14531;DHT22;7352;50.866;4.366;2022-07-06T04:57:14;17.20;99.90
14531;DHT22;7352;50.866;4.366;2022-07-06T04:59:41;17.20;99.90
14531;DHT22;7352;50.866;4.366;2022-07-06T05:02:08;17.30;99.90
14531;DHT22;7352;50.866;4.366;2022-07-06T05:04:37;17.20;99.90
14531;DHT22;7352;50.866;4.366;2022-07-06T05:07:04;17.20;99.90
14531;DHT22;7352;50.866;4.366;2022-07-06T05:09:31;17.10;99.90
14531;DHT22;7352;50.866;4.366;2022-07-06T05:11:59;17.30;99.90
14531;DHT22;7352;50.866;4.366;2022-07-06T05:14:27;17.20;99.90
14531;DHT22;7352;50.866;4.366;2022-07-06T05:16:54;17.40;99.90
14531;DHT22;7352;50.866;4.366;2022-07-06T05:19:21;17.60;99.90
14531;DHT22;7352;50.866;4.366;2022-07-06T05:21:50;17.70;99.90
14531;DHT22;7352;50.866;4.366;2022-07-06T05:24:17;17.50;99.90
14531;DHT22;7352;50.866;4.366;2022-07-06T05:26:45;17.40;99.90
14531;DHT22;7352;50.866;4.366;2022-07-06T05:29:14;17.50;99.90
14531;DHT22;7352;50.866;4.366;2022-07-06T05:31:41;17.50;99.90
14531;DHT22;7352;50.866;4.366;2022-07-06T05:34:08;17.60;99.90
14531;DHT22;7352;50.866;4.366;2022-07-06T05:36:38;17.80;99.90
14531;DHT22;7352;50.866;4.366;2022-07-06T05:39:08;17.80;99.90
14531;DHT22;7352;50.866;4.366;2022-07-06T05:41:35;18.00;99.90
14531;DHT22;7352;50.866;4.366;2022-07-06T05:44:03;18.20;99.90
14531;DHT22;7352;50.866;4.366;2022-07-06T05:46:30;18.10;99.90
14531;DHT22;7352;50.866;4.366;2022-07-06T05:49:02;18.20;99.90
14531;DHT22;7352;50.866;4.366;2022-07-06T05:51:49;18.40;99.90
14531;DHT22;7352;50.866;4.366;2022-07-06T05:54:19;18.50;99.90
14531;DHT22;7352;50.866;4.366;2022-07-06T05:56:46;18.60;99.90
14531;DHT22;7352;50.866;4.366;2022-07-06T05:59:14;18.60;99.70
14531;DHT22;7352;50.866;4.366;2022-07-06T06:01:41;18.70;99.20
14531;DHT22;7352;50.866;4.366;2022-07-06T06:04:10;18.70;99.10
14531;DHT22;7352;50.866;4.366;2022-07-06T06:06:37;19.00;98.90
14531;DHT22;7352;50.866;4.366;2022-07-06T06:09:07;19.10;98.40
14531;DHT22;7352;50.866;4.366;2022-07-06T06:11:40;19.10;98.20
14531;DHT22;7352;50.866;4.366;2022-07-06T06:14:07;19.10;98.10
14531;DHT22;7352;50.866;4.366;2022-07-06T06:16:34;19.20;97.80
14531;DHT22;7352;50.866;4.366;2022-07-06T06:19:02;19.40;97.70
14531;DHT22;7352;50.866;4.366;2022-07-06T06:21:31;19.40;97.30
14531;DHT22;7352;50.866;4.366;2022-07-06T06:23:59;19.60;96.70
14531;DHT22;7352;50.866;4.366;2022-07-06T06:26:26;19.80;96.00
14531;DHT22;7352;50.866;4.366;2022-07-06T06:28:55;19.90;95.90
14531;DHT22;7352;50.866;4.366;2022-07-06T06:31:22;19.90;95.80
14531;DHT22;7352;50.866;4.366;2022-07-06T06:33:49;19.90;95.50
14531;DHT22;7352;50.866;4.366;2022-07-06T06:36:16;20.10;95.20
14531;DHT22;7352;50.866;4.366;2022-07-06T06:38:43;19.90;95.10
14531;DHT22;7352;50.866;4.366;2022-07-06T06:41:10;20.00;94.90
14531;DHT22;7352;50.866;4.366;2022-07-06T06:43:38;20.00;94.60
14531;DHT22;7352;50.866;4.366;2022-07-06T06:46:09;19.80;94.90
14531;DHT22;7352;50.866;4.366;2022-07-06T06:48:47;19.80;94.40
14531;DHT22;7352;50.866;4.366;2022-07-06T06:51:14;19.80;94.20
14531;DHT22;7352;50.866;4.366;2022-07-06T06:53:43;19.90;93.90
14531;DHT22;7352;50.866;4.366;2022-07-06T06:56:10;19.80;93.60
14531;DHT22;7352;50.866;4.366;2022-07-06T06:58:38;20.10;93.50
14531;DHT22;7352;50.866;4.366;2022-07-06T07:01:06;20.30;93.10
14531;DHT22;7352;50.866;4.366;2022-07-06T07:03:33;20.40;92.30
14531;DHT22;7352;50.866;4.366;2022-07-06T07:06:02;20.60;92.30
14531;DHT22;7352;50.866;4.366;2022-07-06T07:08:30;20.80;91.50
14531;DHT22;7352;50.866;4.366;2022-07-06T07:10:57;20.90;90.40
14531;DHT22;7352;50.866;4.366;2022-07-06T07:13:24;20.90;89.10
14531;DHT22;7352;50.866;4.366;2022-07-06T07:15:52;20.90;89.00
14531;DHT22;7352;50.866;4.366;2022-07-06T07:18:20;20.90;88.90
14531;DHT22;7352;50.866;4.366;2022-07-06T07:20:48;20.90;89.60
14531;DHT22;7352;50.866;4.366;2022-07-06T07:23:34;21.10;84.90
14531;DHT22;7352;50.866;4.366;2022-07-06T07:26:01;21.00;83.20
14531;DHT22;7352;50.866;4.366;2022-07-06T07:28:28;21.10;82.70
14531;DHT22;7352;50.866;4.366;2022-07-06T07:30:56;21.00;84.00
14531;DHT22;7352;50.866;4.366;2022-07-06T07:33:24;21.10;83.70
14531;DHT22;7352;50.866;4.366;2022-07-06T07:35:52;21.10;82.80
14531;DHT22;7352;50.866;4.366;2022-07-06T07:38:23;21.20;82.20
14531;DHT22;7352;50.866;4.366;2022-07-06T07:40:52;21.20;81.90
14531;DHT22;7352;50.866;4.366;2022-07-06T07:43:21;21.30;82.50
14531;DHT22;7352;50.866;4.366;2022-07-06T07:45:48;21.50;80.70
14531;DHT22;7352;50.866;4.366;2022-07-06T07:48:16;21.20;80.30
14531;DHT22;7352;50.866;4.366;2022-07-06T07:50:46;21.20;80.30
14531;DHT22;7352;50.866;4.366;2022-07-06T07:53:13;21.30;81.10
14531;DHT22;7352;50.866;4.366;2022-07-06T07:55:40;21.30;82.70
14531;DHT22;7352;50.866;4.366;2022-07-06T07:58:09;21.40;83.00
14531;DHT22;7352;50.866;4.366;2022-07-06T08:00:36;21.50;83.20
14531;DHT22;7352;50.866;4.366;2022-07-06T08:03:03;21.40;82.60
14531;DHT22;7352;50.866;4.366;2022-07-06T08:05:30;21.50;83.40
14531;DHT22;7352;50.866;4.366;2022-07-06T08:07:59;21.70;84.50
14531;DHT22;7352;50.866;4.366;2022-07-06T08:10:26;21.80;84.20
14531;DHT22;7352;50.866;4.366;2022-07-06T08:12:53;21.80;83.90
14531;DHT22;7352;50.866;4.366;2022-07-06T08:15:20;22.00;83.00
14531;DHT22;7352;50.866;4.366;2022-07-06T08:17:47;22.00;83.70
14531;DHT22;7352;50.866;4.366;2022-07-06T08:20:15;22.00;84.10
14531;DHT22;7352;50.866;4.366;2022-07-06T08:22:42;22.00;82.80
14531;DHT22;7352;50.866;4.366;2022-07-06T08:25:11;21.80;84.10
14531;DHT22;7352;50.866;4.366;2022-07-06T08:27:38;21.50;84.50
14531;DHT22;7352;50.866;4.366;2022-07-06T08:30:07;21.40;84.80
14531;DHT22;7352;50.866;4.366;2022-07-06T08:32:38;21.40;85.20
14531;DHT22;7352;50.866;4.366;2022-07-06T08:35:06;21.50;85.30
14531;DHT22;7352;50.866;4.366;2022-07-06T08:37:34;21.60;86.00
14531;DHT22;7352;50.866;4.366;2022-07-06T08:40:01;21.70;84.50
14531;DHT22;7352;50.866;4.366;2022-07-06T08:42:33;21.70;84.00
14531;DHT22;7352;50.866;4.366;2022-07-06T08:45:01;21.80;84.60
14531;DHT22;7352;50.866;4.366;2022-07-06T08:47:30;22.00;84.20
14531;DHT22;7352;50.866;4.366;2022-07-06T08:49:58;22.20;84.60
14531;DHT22;7352;50.866;4.366;2022-07-06T08:52:25;22.30;84.10
14531;DHT22;7352;50.866;4.366;2022-07-06T08:54:52;22.40;84.00
14531;DHT22;7352;50.866;4.366;2022-07-06T08:57:19;22.30;83.50
14531;DHT22;7352;50.866;4.366;2022-07-06T08:59:48;22.20;84.10
14531;DHT22;7352;50.866;4.366;2022-07-06T09:02:15;22.10;85.30
14531;DHT22;7352;50.866;4.366;2022-07-06T09:04:43;22.10;85.40
14531;DHT22;7352;50.866;4.366;2022-07-06T09:07:10;22.20;85.20
14531;DHT22;7352;50.866;4.366;2022-07-06T09:09:40;22.60;85.20
14531;DHT22;7352;50.866;4.366;2022-07-06T09:12:11;22.80;83.90
14531;DHT22;7352;50.866;4.366;2022-07-06T09:14:39;23.00;84.10
14531;DHT22;7352;50.866;4.366;2022-07-06T09:17:07;23.20;82.70
14531;DHT22;7352;50.866;4.366;2022-07-06T09:19:35;23.30;82.50
14531;DHT22;7352;50.866;4.366;2022-07-06T09:22:03;23.20;82.30
14531;DHT22;7352;50.866;4.366;2022-07-06T09:24:30;23.40;81.80
14531;DHT22;7352;50.866;4.366;2022-07-06T09:26:59;23.30;81.70
14531;DHT22;7352;50.866;4.366;2022-07-06T09:29:30;23.60;80.60
14531;DHT22;7352;50.866;4.366;2022-07-06T09:31:58;23.80;82.60
14531;DHT22;7352;50.866;4.366;2022-07-06T09:34:40;23.40;81.80
14531;DHT22;7352;50.866;4.366;2022-07-06T09:37:07;23.30;82.90
14531;DHT22;7352;50.866;4.366;2022-07-06T09:39:35;23.30;81.70
14531;DHT22;7352;50.866;4.366;2022-07-06T09:42:04;23.70;80.70
14531;DHT22;7352;50.866;4.366;2022-07-06T09:44:34;24.00;79.40
14531;DHT22;7352;50.866;4.366;2022-07-06T09:47:05;24.10;78.40
14531;DHT22;7352;50.866;4.366;2022-07-06T09:49:35;23.80;78.80
14531;DHT22;7352;50.866;4.366;2022-07-06T09:52:04;23.70;78.90
14531;DHT22;7352;50.866;4.366;2022-07-06T09:54:33;23.90;78.90
14531;DHT22;7352;50.866;4.366;2022-07-06T09:57:02;24.10;78.50
14531;DHT22;7352;50.866;4.366;2022-07-06T09:59:33;23.90;77.50
14531;DHT22;7352;50.866;4.366;2022-07-06T10:02:01;24.00;77.90
14531;DHT22;7352;50.866;4.366;2022-07-06T10:04:31;24.20;77.80
14531;DHT22;7352;50.866;4.366;2022-07-06T10:07:01;24.60;77.40
14531;DHT22;7352;50.866;4.366;2022-07-06T10:09:35;24.80;76.90
14531;DHT22;7352;50.866;4.366;2022-07-06T10:12:12;24.90;75.90
14531;DHT22;7352;50.866;4.366;2022-07-06T10:14:40;24.80;76.70
14531;DHT22;7352;50.866;4.366;2022-07-06T10:17:08;24.80;76.30
14531;DHT22;7352;50.866;4.366;2022-07-06T10:19:36;24.90;75.70
14531;DHT22;7352;50.866;4.366;2022-07-06T10:22:04;24.90;74.90
14531;DHT22;7352;50.866;4.366;2022-07-06T10:24:33;24.90;74.70
14531;DHT22;7352;50.866;4.366;2022-07-06T10:27:05;24.80;75.00
14531;DHT22;7352;50.866;4.366;2022-07-06T10:29:34;24.60;75.10
14531;DHT22;7352;50.866;4.366;2022-07-06T10:32:02;24.60;74.60
14531;DHT22;7352;50.866;4.366;2022-07-06T10:34:30;24.70;73.90
14531;DHT22;7352;50.866;4.366;2022-07-06T10:36:58;24.70;75.90
14531;DHT22;7352;50.866;4.366;2022-07-06T10:39:34;24.70;74.60
14531;DHT22;7352;50.866;4.366;2022-07-06T10:42:44;24.70;75.20
14531;DHT22;7352;50.866;4.366;2022-07-06T10:45:13;24.70;75.30
14531;DHT22;7352;50.866;4.366;2022-07-06T10:47:40;24.80;75.00
14531;DHT22;7352;50.866;4.366;2022-07-06T10:50:08;25.10;74.80
14531;DHT22;7352;50.866;4.366;2022-07-06T10:52:52;25.20;74.40
14531;DHT22;7352;50.866;4.366;2022-07-06T10:55:35;25.20;75.00
14531;DHT22;7352;50.866;4.366;2022-07-06T10:58:04;25.00;75.60
14531;DHT22;7352;50.866;4.366;2022-07-06T11:00:49;24.80;75.70
14531;DHT22;7352;50.866;4.366;2022-07-06T11:03:32;24.60;76.80
14531;DHT22;7352;50.866;4.366;2022-07-06T11:06:00;24.80;76.50
14531;DHT22;7352;50.866;4.366;2022-07-06T11:08:50;25.10;76.30
14531;DHT22;7352;50.866;4.366;2022-07-06T11:11:25;25.30;75.90
14531;DHT22;7352;50.866;4.366;2022-07-06T11:13:59;25.60;76.50
14531;DHT22;7352;50.866;4.366;2022-07-06T11:16:29;25.90;75.70
14531;DHT22;7352;50.866;4.366;2022-07-06T11:19:05;26.00;74.20
14531;DHT22;7352;50.866;4.366;2022-07-06T11:21:36;25.40;73.90
14531;DHT22;7352;50.866;4.366;2022-07-06T11:24:12;25.50;74.30
14531;DHT22;7352;50.866;4.366;2022-07-06T11:26:44;25.20;73.60
14531;DHT22;7352;50.866;4.366;2022-07-06T11:29:12;25.10;74.30
14531;DHT22;7352;50.866;4.366;2022-07-06T11:31:41;25.10;74.20
14531;DHT22;7352;50.866;4.366;2022-07-06T11:34:10;25.10;73.90
14531;DHT22;7352;50.866;4.366;2022-07-06T11:36:38;24.90;74.30
14531;DHT22;7352;50.866;4.366;2022-07-06T11:39:06;25.20;73.60
14531;DHT22;7352;50.866;4.366;2022-07-06T11:41:33;25.40;73.70
14531;DHT22;7352;50.866;4.366;2022-07-06T11:44:04;25.50;74.20
14531;DHT22;7352;50.866;4.366;2022-07-06T11:46:32;25.30;73.60
14531;DHT22;7352;50.866;4.366;2022-07-06T11:49:00;25.40;73.70
14531;DHT22;7352;50.866;4.366;2022-07-06T11:51:29;25.40;72.60
14531;DHT22;7352;50.866;4.366;2022-07-06T11:53:58;25.40;72.60
14531;DHT22;7352;50.866;4.366;2022-07-06T11:56:26;25.60;73.00
14531;DHT22;7352;50.866;4.366;2022-07-06T11:58:55;25.60;72.00
14531;DHT22;7352;50.866;4.366;2022-07-06T12:01:25;25.60;72.10
14531;DHT22;7352;50.866;4.366;2022-07-06T12:03:53;25.60;73.00
14531;DHT22;7352;50.866;4.366;2022-07-06T12:06:24;25.40;74.20
14531;DHT22;7352;50.866;4.366;2022-07-06T12:08:53;25.40;71.50
14531;DHT22;7352;50.866;4.366;2022-07-06T12:11:22;25.40;71.90
14531;DHT22;7352;50.866;4.366;2022-07-06T12:13:50;25.60;70.90
14531;DHT22;7352;50.866;4.366;2022-07-06T12:16:18;25.50;72.20
14531;DHT22;7352;50.866;4.366;2022-07-06T12:18:47;25.80;71.80
14531;DHT22;7352;50.866;4.366;2022-07-06T12:21:16;25.90;71.50
14531;DHT22;7352;50.866;4.366;2022-07-06T12:23:45;26.00;71.30
14531;DHT22;7352;50.866;4.366;2022-07-06T12:26:13;25.80;72.10
14531;DHT22;7352;50.866;4.366;2022-07-06T12:28:40;25.80;71.50
14531;DHT22;7352;50.866;4.366;2022-07-06T12:31:08;25.70;72.40
14531;DHT22;7352;50.866;4.366;2022-07-06T12:33:36;25.40;73.00
14531;DHT22;7352;50.866;4.366;2022-07-06T12:36:14;25.20;73.20
14531;DHT22;7352;50.866;4.366;2022-07-06T12:38:46;25.10;73.50
14531;DHT22;7352;50.866;4.366;2022-07-06T12:41:30;25.20;74.40
14531;DHT22;7352;50.866;4.366;2022-07-06T12:44:09;25.20;72.80
14531;DHT22;7352;50.866;4.366;2022-07-06T12:46:37;25.10;74.10
14531;DHT22;7352;50.866;4.366;2022-07-06T12:49:12;25.10;74.20
14531;DHT22;7352;50.866;4.366;2022-07-06T12:52:09;25.20;73.60
14531;DHT22;7352;50.866;4.366;2022-07-06T12:54:41;25.40;73.60
14531;DHT22;7352;50.866;4.366;2022-07-06T12:57:11;25.40;72.60
14531;DHT22;7352;50.866;4.366;2022-07-06T12:59:41;25.30;73.60
14531;DHT22;7352;50.866;4.366;2022-07-06T13:02:18;25.50;73.90
14531;DHT22;7352;50.866;4.366;2022-07-06T13:04:54;25.60;73.10
14531;DHT22;7352;50.866;4.366;2022-07-06T13:07:25;25.70;71.00
14531;DHT22;7352;50.866;4.366;2022-07-06T13:09:53;25.60;71.40
14531;DHT22;7352;50.866;4.366;2022-07-06T13:12:23;25.70;71.70
14531;DHT22;7352;50.866;4.366;2022-07-06T13:14:57;26.10;72.10
14531;DHT22;7352;50.866;4.366;2022-07-06T13:17:24;25.90;70.60
14531;DHT22;7352;50.866;4.366;2022-07-06T13:19:51;25.80;71.70
14531;DHT22;7352;50.866;4.366;2022-07-06T13:22:18;26.30;71.40
14531;DHT22;7352;50.866;4.366;2022-07-06T13:24:47;26.50;70.40
14531;DHT22;7352;50.866;4.366;2022-07-06T13:27:14;26.50;71.20
14531;DHT22;7352;50.866;4.366;2022-07-06T13:29:41;26.60;71.10
14531;DHT22;7352;50.866;4.366;2022-07-06T13:32:08;26.80;72.10
14531;DHT22;7352;50.866;4.366;2022-07-06T13:34:36;26.80;70.70
14531;DHT22;7352;50.866;4.366;2022-07-06T13:37:03;26.90;69.90
14531;DHT22;7352;50.866;4.366;2022-07-06T13:39:31;26.90;70.50
14531;DHT22;7352;50.866;4.366;2022-07-06T13:42:00;26.80;70.60
14531;DHT22;7352;50.866;4.366;2022-07-06T13:44:28;26.50;71.30
14531;DHT22;7352;50.866;4.366;2022-07-06T13:46:55;26.30;70.00
14531;DHT22;7352;50.866;4.366;2022-07-06T13:49:22;26.10;70.50
14531;DHT22;7352;50.866;4.366;2022-07-06T13:51:49;26.00;72.00
14531;DHT22;7352;50.866;4.366;2022-07-06T13:54:16;26.00;70.90
14531;DHT22;7352;50.866;4.366;2022-07-06T13:56:43;26.20;70.90
14531;DHT22;7352;50.866;4.366;2022-07-06T13:59:12;26.40;71.80
14531;DHT22;7352;50.866;4.366;2022-07-06T14:01:38;26.60;70.10
14531;DHT22;7352;50.866;4.366;2022-07-06T14:04:05;27.00;69.30
14531;DHT22;7352;50.866;4.366;2022-07-06T14:06:33;27.10;68.90
14531;DHT22;7352;50.866;4.366;2022-07-06T14:09:01;27.30;68.30
14531;DHT22;7352;50.866;4.366;2022-07-06T14:11:28;27.30;69.50
14531;DHT22;7352;50.866;4.366;2022-07-06T14:13:55;27.30;68.80
14531;DHT22;7352;50.866;4.366;2022-07-06T14:16:24;27.00;69.30
14531;DHT22;7352;50.866;4.366;2022-07-06T14:18:51;27.00;70.70
14531;DHT22;7352;50.866;4.366;2022-07-06T14:21:18;27.40;69.70
14531;DHT22;7352;50.866;4.366;2022-07-06T14:23:46;27.60;68.50
14531;DHT22;7352;50.866;4.366;2022-07-06T14:26:14;27.50;68.00
14531;DHT22;7352;50.866;4.366;2022-07-06T14:28:42;27.40;67.80
14531;DHT22;7352;50.866;4.366;2022-07-06T14:31:09;27.30;69.30
14531;DHT22;7352;50.866;4.366;2022-07-06T14:33:37;27.30;69.60
14531;DHT22;7352;50.866;4.366;2022-07-06T14:36:05;27.40;69.20
14531;DHT22;7352;50.866;4.366;2022-07-06T14:38:32;27.50;68.40
14531;DHT22;7352;50.866;4.366;2022-07-06T14:40:59;27.80;68.40
14531;DHT22;7352;50.866;4.366;2022-07-06T14:43:26;28.00;68.30
14531;DHT22;7352;50.866;4.366;2022-07-06T14:45:53;27.70;68.70
14531;DHT22;7352;50.866;4.366;2022-07-06T14:48:21;27.90;69.20
14531;DHT22;7352;50.866;4.366;2022-07-06T14:50:55;28.00;68.00
14531;DHT22;7352;50.866;4.366;2022-07-06T14:53:23;27.80;68.00
14531;DHT22;7352;50.866;4.366;2022-07-06T14:55:50;27.90;68.90
14531;DHT22;7352;50.866;4.366;2022-07-06T14:58:18;28.00;67.60
14531;DHT22;7352;50.866;4.366;2022-07-06T15:00:45;28.30;67.80
14531;DHT22;7352;50.866;4.366;2022-07-06T15:03:12;28.60;66.80
14531;DHT22;7352;50.866;4.366;2022-07-06T15:05:40;28.80;66.10
14531;DHT22;7352;50.866;4.366;2022-07-06T15:08:10;28.80;66.80
14531;DHT22;7352;50.866;4.366;2022-07-06T15:10:37;29.30;65.60
14531;DHT22;7352;50.866;4.366;2022-07-06T15:13:04;29.70;64.60
14531;DHT22;7352;50.866;4.366;2022-07-06T15:15:32;29.80;65.10
14531;DHT22;7352;50.866;4.366;2022-07-06T15:17:59;29.80;64.40
14531;DHT22;7352;50.866;4.366;2022-07-06T15:20:26;29.50;65.50
14531;DHT22;7352;50.866;4.366;2022-07-06T15:22:53;29.40;64.40
14531;DHT22;7352;50.866;4.366;2022-07-06T15:25:22;29.20;64.70
14531;DHT22;7352;50.866;4.366;2022-07-06T15:27:51;28.50;66.00
14531;DHT22;7352;50.866;4.366;2022-07-06T15:30:19;28.40;66.80
14531;DHT22;7352;50.866;4.366;2022-07-06T15:32:46;28.30;66.90
14531;DHT22;7352;50.866;4.366;2022-07-06T15:35:13;28.30;67.50
14531;DHT22;7352;50.866;4.366;2022-07-06T15:37:41;28.20;66.60
14531;DHT22;7352;50.866;4.366;2022-07-06T15:40:20;28.00;67.70
14531;DHT22;7352;50.866;4.366;2022-07-06T15:43:01;28.00;68.00
14531;DHT22;7352;50.866;4.366;2022-07-06T15:45:28;27.80;68.30
14531;DHT22;7352;50.866;4.366;2022-07-06T15:47:55;27.90;68.10
14531;DHT22;7352;50.866;4.366;2022-07-06T15:50:22;27.90;67.90
14531;DHT22;7352;50.866;4.366;2022-07-06T15:52:49;27.80;68.30
14531;DHT22;7352;50.866;4.366;2022-07-06T15:55:16;27.80;68.00